createdAt,value
2022-09-07T00:01:28.972Z,3.17
2022-09-07T00:04:19.561Z,3.35
2022-09-07T00:07:09.626Z,3.30
2022-09-07T00:09:59.490Z,3.75
2022-09-07T00:12:50.911Z,3.60
2022-09-07T00:15:41.436Z,3.25
2022-09-07T00:18:31.902Z,3.10
2022-09-07T00:21:22.211Z,3.03
2022-09-07T00:24:12.910Z,3.03
2022-09-07T00:27:03.201Z,3.40
2022-09-07T00:29:53.664Z,3.40
2022-09-07T00:32:43.649Z,3.17
2022-09-07T00:35:34.092Z,3.00
2022-09-07T00:38:24.530Z,3.00
2022-09-07T00:41:15.648Z,3.33
2022-09-07T00:44:43.609Z,3.50
2022-09-07T00:47:52.991Z,2.92
2022-09-07T00:50:51.374Z,2.67
2022-09-07T00:53:53.793Z,3.10
2022-09-07T00:56:46.315Z,2.90
2022-09-07T00:59:41.742Z,3.15
2022-09-07T01:02:31.975Z,3.13
2022-09-07T01:05:39.262Z,3.78
2022-09-07T01:08:30.293Z,3.35
2022-09-07T01:11:22.440Z,3.38
2022-09-07T01:14:15.628Z,3.05
2022-09-07T01:17:29.934Z,3.08
2022-09-07T01:20:35.896Z,3.03
2022-09-07T01:23:40.272Z,2.80
2022-09-07T01:26:33.346Z,3.00
2022-09-07T01:29:35.482Z,3.08
2022-09-07T01:32:59.385Z,3.13
2022-09-07T01:36:26.995Z,3.00
2022-09-07T01:39:22.359Z,2.72
2022-09-07T01:42:15.026Z,2.58
2022-09-07T01:45:11.401Z,3.20
2022-09-07T01:48:06.099Z,3.15
2022-09-07T01:51:03.568Z,3.20
2022-09-07T01:53:58.645Z,3.30
2022-09-07T01:56:53.103Z,4.07
2022-09-07T01:59:57.445Z,3.72
2022-09-07T02:03:07.666Z,3.20
2022-09-07T02:06:11.503Z,3.65
2022-09-07T02:09:10.740Z,3.28
2022-09-07T02:12:07.273Z,3.58
2022-09-07T02:15:03.619Z,3.50
2022-09-07T02:18:01.771Z,3.35
2022-09-07T02:20:56.074Z,3.30
2022-09-07T02:23:57.332Z,3.30
2022-09-07T02:26:49.608Z,3.40
2022-09-07T02:29:40.253Z,3.28
2022-09-07T02:32:30.355Z,3.15
2022-09-07T02:35:20.846Z,3.80
2022-09-07T02:38:10.899Z,5.03
2022-09-07T02:41:02.217Z,5.30
2022-09-07T02:43:52.172Z,4.53
2022-09-07T02:47:01.187Z,4.28
2022-09-07T02:50:01.096Z,4.40
2022-09-07T02:52:58.030Z,3.97
2022-09-07T02:56:12.831Z,4.40
2022-09-07T02:59:29.250Z,4.93
2022-09-07T03:02:26.721Z,4.63
2022-09-07T03:05:31.023Z,4.53
2022-09-07T03:08:29.626Z,4.25
2022-09-07T03:11:20.831Z,4.28
2022-09-07T03:14:16.243Z,4.47
2022-09-07T03:17:07.396Z,4.50
2022-09-07T03:19:57.656Z,4.72
2022-09-07T03:22:49.336Z,4.13
2022-09-07T03:25:39.398Z,4.30
2022-09-07T03:28:29.907Z,4.20
2022-09-07T03:31:20.899Z,4.28
2022-09-07T03:34:11.485Z,4.07
2022-09-07T03:37:01.731Z,3.95
2022-09-07T03:39:51.845Z,4.00
2022-09-07T03:42:42.656Z,3.72
2022-09-07T03:45:32.592Z,3.97
2022-09-07T03:48:22.913Z,3.58
2022-09-07T03:51:14.727Z,3.47
2022-09-07T03:54:04.803Z,3.75
2022-09-07T03:56:54.926Z,3.42
2022-09-07T03:59:45.230Z,3.60
2022-09-07T04:02:35.110Z,3.53
2022-09-07T04:05:25.373Z,3.67
2022-09-07T04:08:15.803Z,3.10
2022-09-07T04:11:07.461Z,3.40
2022-09-07T04:13:57.730Z,3.65
2022-09-07T04:16:48.567Z,4.22
2022-09-07T04:19:38.541Z,3.60
2022-09-07T04:22:28.847Z,3.60
2022-09-07T04:25:18.776Z,3.75
2022-09-07T04:28:08.877Z,3.53
2022-09-07T04:31:02.642Z,3.83
2022-09-07T04:33:53.091Z,3.58
2022-09-07T04:36:43.008Z,3.42
2022-09-07T04:39:32.874Z,4.00
2022-09-07T04:42:23.318Z,3.33
2022-09-07T04:45:13.218Z,3.35
2022-09-07T04:48:04.145Z,3.60
2022-09-07T04:50:54.488Z,5.07
2022-09-07T04:53:48.240Z,3.40
2022-09-07T04:56:38.125Z,3.72
2022-09-07T04:59:28.007Z,3.90
2022-09-07T05:02:17.959Z,3.63
2022-09-07T05:05:08.674Z,7.90
2022-09-07T05:07:59.015Z,6.78
2022-09-07T05:10:53.732Z,4.82
2022-09-07T05:13:43.986Z,4.50
2022-09-07T05:16:34.142Z,3.92
2022-09-07T05:19:24.581Z,3.42
2022-09-07T05:22:14.607Z,3.65
2022-09-07T05:25:04.950Z,3.67
2022-09-07T05:27:55.644Z,3.75
2022-09-07T05:37:08.090Z,4.15
2022-09-07T05:39:58.450Z,4.32
2022-09-07T05:42:48.640Z,4.60
2022-09-07T05:45:39.301Z,4.93
2022-09-07T05:48:29.946Z,4.93
2022-09-07T05:51:20.428Z,4.72
2022-09-07T05:54:11.151Z,4.80
2022-09-07T05:57:03.478Z,4.47
2022-09-07T05:59:53.742Z,5.05
2022-09-07T06:02:43.636Z,5.20
2022-09-07T06:05:33.710Z,5.03
2022-09-07T06:08:24.085Z,4.80
2022-09-07T06:11:16.776Z,5.45
2022-09-07T06:14:06.773Z,4.93
2022-09-07T06:16:57.210Z,5.07
2022-09-07T06:19:47.747Z,5.15
2022-09-07T06:22:38.231Z,5.10
2022-09-07T06:25:28.254Z,5.55
2022-09-07T06:28:18.647Z,6.40
2022-09-07T06:31:17.465Z,5.13
2022-09-07T06:34:07.731Z,4.97
2022-09-07T06:36:57.859Z,4.38
2022-09-07T06:39:49.360Z,4.40
2022-09-07T06:42:39.976Z,3.97
2022-09-07T06:45:31.860Z,4.53
2022-09-07T06:48:22.452Z,3.65
2022-09-07T06:51:15.527Z,4.20
2022-09-07T06:57:16.126Z,3.85
2022-09-07T07:00:06.504Z,4.75
2022-09-07T07:02:57.132Z,5.18
2022-09-07T07:05:55.759Z,4.88
2022-09-07T07:08:46.183Z,4.82
2022-09-07T07:11:37.586Z,4.30
2022-09-07T07:14:29.950Z,4.10
2022-09-07T07:17:21.764Z,4.35
2022-09-07T07:20:12.236Z,3.75
2022-09-07T07:23:02.858Z,3.63
2022-09-07T07:25:52.964Z,3.17
2022-09-07T07:29:04.062Z,2.70
2022-09-07T07:31:54.587Z,3.00
2022-09-07T07:34:44.852Z,3.20
2022-09-07T07:37:36.954Z,3.15
2022-09-07T07:40:30.824Z,3.08
2022-09-07T07:43:22.124Z,2.95
2022-09-07T07:46:13.781Z,3.08
2022-09-07T07:49:04.096Z,3.10
2022-09-07T07:55:42.779Z,2.83
2022-09-07T07:58:17.656Z,3.03
2022-09-07T08:01:14.397Z,2.15
2022-09-07T08:04:04.781Z,2.60
2022-09-07T08:06:55.289Z,2.47
2022-09-07T08:09:47.474Z,2.70
2022-09-07T08:12:39.224Z,2.78
2022-09-07T08:15:31.061Z,3.13
2022-09-07T08:18:20.877Z,2.67
2022-09-07T08:21:16.159Z,2.90
2022-09-07T08:24:06.442Z,2.38
2022-09-07T08:26:56.528Z,2.00
2022-09-07T08:29:46.880Z,2.00
2022-09-07T08:32:37.148Z,2.47
2022-09-07T08:35:27.647Z,2.08
2022-09-07T08:38:20.955Z,2.35
2022-09-07T08:41:51.665Z,3.15
2022-09-07T08:44:51.004Z,2.33
2022-09-07T08:47:48.583Z,2.10
2022-09-07T08:50:56.171Z,1.88
2022-09-07T08:53:48.446Z,2.10
2022-09-07T08:57:20.588Z,2.08
2022-09-07T09:00:07.671Z,2.08
2022-09-07T09:06:27.497Z,2.10
2022-09-07T09:09:30.695Z,1.95
2022-09-07T09:12:58.128Z,2.13
2022-09-07T09:16:10.205Z,2.70
2022-09-07T09:19:28.461Z,2.10
2022-09-07T09:22:26.516Z,2.70
2022-09-07T09:25:26.791Z,2.10
2022-09-07T09:28:17.327Z,2.55
2022-09-07T09:31:17.224Z,2.17
2022-09-07T09:34:15.133Z,1.80
2022-09-07T09:37:05.086Z,2.13
2022-09-07T09:40:02.261Z,2.05
2022-09-07T09:43:17.445Z,2.03
2022-09-07T09:46:27.864Z,2.03
2022-09-07T09:49:28.114Z,2.25
2022-09-07T09:52:29.722Z,1.98
2022-09-07T09:55:34.826Z,2.30
2022-09-07T10:05:20.209Z,1.77
2022-09-07T10:08:19.814Z,2.10
2022-09-07T10:11:13.556Z,2.15
2022-09-07T10:16:55.705Z,2.30
2022-09-07T10:19:45.997Z,3.13
2022-09-07T10:22:37.632Z,3.15
2022-09-07T10:25:36.626Z,2.15
2022-09-07T10:29:06.380Z,4.18
2022-09-07T10:32:06.362Z,2.10
2022-09-07T10:35:17.615Z,1.98
2022-09-07T10:38:21.023Z,2.42
2022-09-07T10:41:11.498Z,1.77
2022-09-07T10:44:07.139Z,2.00
2022-09-07T10:47:08.527Z,2.45
2022-09-07T10:50:24.656Z,2.38
2022-09-07T10:53:40.935Z,1.80
2022-09-07T10:56:35.496Z,1.70
2022-09-07T11:03:29.484Z,1.83
2022-09-07T11:06:32.316Z,1.95
2022-09-07T11:09:31.460Z,2.08
2022-09-07T11:12:30.841Z,1.90
2022-09-07T11:15:27.707Z,1.60
2022-09-07T11:18:25.783Z,1.88
2022-09-07T11:24:40.082Z,1.50
2022-09-07T11:27:47.166Z,2.00
2022-09-07T11:30:43.864Z,1.67
2022-09-07T11:33:39.719Z,1.50
2022-09-07T11:36:40.490Z,1.40
2022-09-07T11:39:35.851Z,1.75
2022-09-07T11:42:44.125Z,2.15
2022-09-07T11:45:42.532Z,1.17
2022-09-07T11:48:42.840Z,1.45
2022-09-07T11:51:43.294Z,1.52
2022-09-07T11:54:55.073Z,1.58
2022-09-07T11:57:51.371Z,1.65
2022-09-07T12:01:11.892Z,1.40
2022-09-07T12:04:13.201Z,1.40
2022-09-07T12:07:37.039Z,1.55
2022-09-07T12:10:36.024Z,1.10
2022-09-07T12:13:37.734Z,1.38
2022-09-07T12:16:53.355Z,1.42
2022-09-07T12:19:43.522Z,1.70
2022-09-07T12:22:34.230Z,1.55
2022-09-07T12:25:25.698Z,1.42
2022-09-07T12:28:22.262Z,2.13
2022-09-07T12:31:12.686Z,1.70
2022-09-07T12:34:31.123Z,1.30
2022-09-07T12:37:27.373Z,1.55
2022-09-07T12:40:29.727Z,1.30
2022-09-07T12:43:19.872Z,1.73
2022-09-07T12:46:37.761Z,1.50
2022-09-07T12:49:46.589Z,1.27
2022-09-07T12:52:45.712Z,1.30
2022-09-07T12:56:17.006Z,1.10
2022-09-07T12:59:39.297Z,1.13
2022-09-07T13:02:48.890Z,1.30
2022-09-07T13:05:52.664Z,1.42
2022-09-07T13:08:46.116Z,1.20
2022-09-07T13:11:40.441Z,1.20
2022-09-07T13:14:36.404Z,1.10
2022-09-07T13:17:34.556Z,1.70
2022-09-07T13:20:30.317Z,1.30
2022-09-07T13:23:23.829Z,1.50
2022-09-07T13:30:23.030Z,1.42
2022-09-07T13:33:25.207Z,1.40
2022-09-07T13:36:22.043Z,1.50
2022-09-07T13:39:16.938Z,1.38
2022-09-07T13:42:12.664Z,1.50
2022-09-07T13:45:09.715Z,1.63
2022-09-07T13:48:21.651Z,1.23
2022-09-07T13:51:16.513Z,1.67
2022-09-07T13:54:12.809Z,1.42
2022-09-07T13:57:29.773Z,1.13
2022-09-07T14:00:20.106Z,1.38
2022-09-07T14:03:17.275Z,1.27
2022-09-07T14:06:21.239Z,1.55
2022-09-07T14:09:18.078Z,1.38
2022-09-07T14:12:20.398Z,1.17
2022-09-07T14:15:32.459Z,1.17
2022-09-07T14:18:33.088Z,1.10
2022-09-07T14:21:23.763Z,1.42
2022-09-07T14:24:28.625Z,1.52
2022-09-07T14:27:25.251Z,1.27
2022-09-07T14:30:33.503Z,1.58
2022-09-07T14:33:24.316Z,1.50
2022-09-07T14:36:39.449Z,1.50
2022-09-07T14:39:29.897Z,1.02
2022-09-07T14:42:24.847Z,1.17
2022-09-07T14:45:19.940Z,1.30
2022-09-07T14:48:13.430Z,1.30
2022-09-07T14:51:26.993Z,1.38
2022-09-07T14:54:31.699Z,1.50
2022-09-07T14:57:31.733Z,1.38
2022-09-07T15:00:32.194Z,1.77
2022-09-07T15:03:46.361Z,1.25
2022-09-07T15:09:52.412Z,2.10
2022-09-07T15:12:44.168Z,1.17
2022-09-07T15:15:41.253Z,1.33
2022-09-07T15:18:57.721Z,1.20
2022-09-07T15:21:54.241Z,1.50
2022-09-07T15:24:48.680Z,1.40
2022-09-07T15:27:47.327Z,1.42
2022-09-07T15:30:37.831Z,1.65
2022-09-07T15:33:28.267Z,1.13
2022-09-07T15:36:20.493Z,1.63
2022-09-07T15:39:18.513Z,1.40
2022-09-07T15:45:20.059Z,1.10
2022-09-07T15:48:18.736Z,1.52
2022-09-07T15:54:22.712Z,1.20
2022-09-07T16:00:29.671Z,1.08
2022-09-07T16:03:23.501Z,1.20
2022-09-07T16:09:08.894Z,1.20
2022-09-07T16:12:59.937Z,1.23
2022-09-07T16:15:12.784Z,0.98
2022-09-07T16:18:04.583Z,1.33
2022-09-07T16:20:55.669Z,1.30
2022-09-07T16:23:48.952Z,1.60
2022-09-07T16:26:38.931Z,1.50
2022-09-07T16:29:28.983Z,1.40
2022-09-07T16:35:28.961Z,1.27
2022-09-07T16:41:31.580Z,1.67
2022-09-07T16:44:21.657Z,1.70
2022-09-07T16:47:12.714Z,1.30
2022-09-07T16:50:02.696Z,1.30
2022-09-07T16:52:52.990Z,1.55
2022-09-07T16:55:43.228Z,1.20
2022-09-07T16:58:36.774Z,1.20
2022-09-07T17:01:30.412Z,1.50
2022-09-07T17:04:20.982Z,1.27
2022-09-07T17:07:12.622Z,1.30
2022-09-07T17:10:03.111Z,1.30
2022-09-07T17:12:53.280Z,1.50
2022-09-07T17:15:43.260Z,1.83
2022-09-07T17:21:44.417Z,1.55
2022-09-07T17:24:36.191Z,1.60
2022-09-07T17:27:27.287Z,1.50
2022-09-07T17:30:20.579Z,1.30
2022-09-07T17:33:11.403Z,1.70
2022-09-07T17:36:04.124Z,1.63
2022-09-07T17:42:07.466Z,1.38
2022-09-07T17:44:57.549Z,1.90
2022-09-07T17:47:50.213Z,1.67
2022-09-07T17:50:40.144Z,1.48
2022-09-07T17:53:30.372Z,1.30
2022-09-07T17:56:20.842Z,1.23
2022-09-07T18:02:29.340Z,1.55
2022-09-07T18:05:21.718Z,1.30
2022-09-07T18:08:12.805Z,1.30
2022-09-07T18:14:24.774Z,1.60
2022-09-07T18:17:14.942Z,1.80
2022-09-07T18:20:05.531Z,1.23
2022-09-07T18:22:56.084Z,1.40
2022-09-07T18:25:56.119Z,1.30
2022-09-07T18:29:22.265Z,1.15
2022-09-07T18:32:08.415Z,1.92
2022-09-07T18:34:59.186Z,1.52
2022-09-07T18:37:50.240Z,1.60
2022-09-07T18:40:40.580Z,0.95
2022-09-07T18:43:34.745Z,1.33
2022-09-07T18:46:25.610Z,1.45
2022-09-07T18:49:16.003Z,1.38
2022-09-07T18:55:17.031Z,1.60
2022-09-07T18:58:07.034Z,1.45
2022-09-07T19:00:58.266Z,1.45
2022-09-07T19:03:56.499Z,1.30
2022-09-07T19:06:46.814Z,1.40
2022-09-07T19:09:36.605Z,1.50
2022-09-07T19:12:26.624Z,1.10
2022-09-07T19:15:16.956Z,1.30
2022-09-07T19:18:07.977Z,1.15
2022-09-07T19:21:03.465Z,1.23
2022-09-07T19:24:02.081Z,1.50
2022-09-07T19:26:55.723Z,1.10
2022-09-07T19:29:49.415Z,1.15
2022-09-07T19:32:40.379Z,1.10
2022-09-07T19:35:34.631Z,1.30
2022-09-07T19:38:24.456Z,1.58
2022-09-07T19:41:17.027Z,1.73
2022-09-07T19:44:08.530Z,2.17
2022-09-07T19:46:58.704Z,1.67
2022-09-07T19:49:48.651Z,1.98
2022-09-07T19:52:38.437Z,1.40
2022-09-07T19:55:28.276Z,1.50
2022-09-07T19:58:18.520Z,1.90
2022-09-07T20:01:14.502Z,2.20
2022-09-07T20:04:07.579Z,2.67
2022-09-07T20:06:57.686Z,2.13
2022-09-07T20:09:50.757Z,2.40
2022-09-07T20:12:41.075Z,1.90
2022-09-07T20:15:31.431Z,4.93
2022-09-07T20:18:22.774Z,2.65
2022-09-07T20:21:21.557Z,1.67
2022-09-07T20:24:12.478Z,1.80
2022-09-07T20:27:03.163Z,1.77
2022-09-07T20:29:53.171Z,2.05
2022-09-07T20:32:43.827Z,2.63
2022-09-07T20:35:34.318Z,2.28
2022-09-07T20:38:24.403Z,2.00
2022-09-07T20:41:15.679Z,1.75
2022-09-07T20:44:05.855Z,2.13
2022-09-07T20:46:56.236Z,2.45
2022-09-07T20:49:46.879Z,2.00
2022-09-07T20:52:36.928Z,2.30
2022-09-07T20:55:27.005Z,1.80
2022-09-07T20:58:17.740Z,1.80
2022-09-07T21:01:07.611Z,1.95
2022-09-07T21:03:59.141Z,1.33
2022-09-07T21:06:49.469Z,2.72
2022-09-07T21:09:39.473Z,2.78
2022-09-07T21:12:29.423Z,1.40
2022-09-07T21:15:19.709Z,1.80
2022-09-07T21:18:15.829Z,2.03
2022-09-07T21:21:21.886Z,1.65
2022-09-07T21:24:20.789Z,2.10
2022-09-07T21:27:10.904Z,1.70
2022-09-07T21:30:01.014Z,1.58
2022-09-07T21:32:52.065Z,2.03
2022-09-07T21:35:42.119Z,2.00
2022-09-07T21:38:32.100Z,1.83
2022-09-07T21:41:24.286Z,2.00
2022-09-07T21:44:16.024Z,1.92
2022-09-07T21:47:06.137Z,1.90
2022-09-07T21:49:56.089Z,2.20
2022-09-07T21:52:46.503Z,3.45
2022-09-07T21:55:36.666Z,12.43
2022-09-07T21:58:28.417Z,4.28
2022-09-07T22:01:19.374Z,2.08
2022-09-07T22:04:09.940Z,1.83
2022-09-07T22:07:00.111Z,1.65
2022-09-07T22:09:50.107Z,1.80
2022-09-07T22:12:40.030Z,1.65
2022-09-07T22:15:33.568Z,1.70
2022-09-07T22:18:23.772Z,1.98
2022-09-07T22:21:19.759Z,1.80
2022-09-07T22:24:11.907Z,1.77
2022-09-07T22:27:01.744Z,1.70
2022-09-07T22:29:51.872Z,1.73
2022-09-07T22:32:47.617Z,1.80
2022-09-07T22:35:38.414Z,1.80
2022-09-07T22:38:28.207Z,1.98
2022-09-07T22:41:20.890Z,1.63
2022-09-07T22:44:13.712Z,1.88
2022-09-07T22:47:03.716Z,1.98
2022-09-07T22:49:54.251Z,1.90
2022-09-07T22:52:44.214Z,1.88
2022-09-07T22:55:38.424Z,1.95
2022-09-07T22:58:31.231Z,2.00
2022-09-07T23:01:21.938Z,2.53
2022-09-07T23:04:13.250Z,2.30
2022-09-07T23:07:06.495Z,2.05
2022-09-07T23:09:56.564Z,2.28
2022-09-07T23:12:46.751Z,2.15
2022-09-07T23:15:36.677Z,2.63
2022-09-07T23:18:26.521Z,2.50
2022-09-07T23:21:17.130Z,2.10
2022-09-07T23:24:07.435Z,2.85
2022-09-07T23:26:57.227Z,2.22
2022-09-07T23:29:47.104Z,2.97
2022-09-07T23:32:37.183Z,2.25
2022-09-07T23:35:27.717Z,2.53
2022-09-07T23:38:17.632Z,2.50
2022-09-07T23:41:07.483Z,2.50
2022-09-07T23:43:57.612Z,2.70
2022-09-07T23:46:47.821Z,2.55
2022-09-07T23:49:38.268Z,2.90
2022-09-07T23:52:28.295Z,2.50
2022-09-07T23:55:18.378Z,2.70
2022-09-07T23:58:09.639Z,2.83
